createdAt,value
2019-03-03T00:00:57.192Z,1.92
2019-03-03T00:03:50.504Z,2.47
2019-03-03T00:06:43.305Z,2.20
2019-03-03T00:09:39.181Z,2.25
2019-03-03T00:12:33.000Z,2.47
2019-03-03T00:15:27.339Z,2.22
2019-03-03T00:18:20.136Z,2.08
2019-03-03T00:21:31.877Z,1.92
2019-03-03T00:24:24.680Z,2.17
2019-03-03T00:27:17.737Z,2.85
2019-03-03T00:30:11.560Z,2.67
2019-03-03T00:33:04.364Z,2.55
2019-03-03T00:35:57.166Z,2.95
2019-03-03T00:39:04.554Z,1.90
2019-03-03T00:42:08.620Z,1.72
2019-03-03T00:45:10.889Z,2.02
2019-03-03T00:48:15.207Z,2.37
2019-03-03T00:51:37.723Z,2.92
2019-03-03T00:54:45.610Z,2.70
2019-03-03T00:57:49.935Z,3.52
2019-03-03T01:01:00.902Z,2.80
2019-03-03T01:04:08.557Z,2.55
2019-03-03T01:07:27.469Z,3.00
2019-03-03T01:10:34.342Z,2.45
2019-03-03T01:13:44.565Z,2.20
2019-03-03T01:16:48.617Z,2.90
2019-03-03T01:20:10.859Z,2.12
2019-03-03T01:23:13.642Z,2.55
2019-03-03T01:26:06.696Z,2.27
2019-03-03T01:28:59.496Z,2.95
2019-03-03T01:31:52.296Z,2.98
2019-03-03T01:34:45.097Z,3.67
2019-03-03T01:37:34.318Z,2.87
2019-03-03T01:40:28.138Z,2.70
2019-03-03T01:43:17.254Z,1.90
2019-03-03T01:46:10.150Z,3.02
2019-03-03T01:49:03.975Z,2.77
2019-03-03T01:51:57.032Z,4.00
2019-03-03T01:54:49.831Z,2.47
2019-03-03T01:57:42.635Z,3.05
2019-03-03T02:00:45.008Z,2.10
2019-03-03T02:03:37.962Z,3.17
2019-03-03T02:06:31.016Z,2.65
2019-03-03T02:09:24.073Z,2.40
2019-03-03T02:12:16.880Z,3.10
2019-03-03T02:15:09.929Z,3.42
2019-03-03T02:18:05.289Z,3.27
2019-03-03T02:20:54.760Z,2.62
2019-03-03T02:23:47.816Z,2.20
2019-03-03T02:26:40.616Z,3.12
2019-03-03T02:29:33.422Z,3.20
2019-03-03T02:32:29.290Z,3.10
2019-03-03T02:35:24.916Z,3.10
2019-03-03T02:38:17.706Z,2.35
2019-03-03T02:41:10.761Z,3.35
2019-03-03T02:44:03.816Z,2.45
2019-03-03T02:46:57.647Z,2.52
2019-03-03T02:49:50.697Z,2.27
2019-03-03T02:52:51.702Z,2.98
2019-03-03T02:55:44.493Z,1.72
2019-03-03T02:58:37.546Z,2.65
2019-03-03T03:01:34.447Z,3.50
2019-03-03T03:04:27.242Z,3.33
2019-03-03T03:07:29.512Z,2.90
2019-03-03T03:10:39.466Z,2.25
2019-03-03T03:13:52.746Z,3.90
2019-03-03T03:16:58.865Z,2.62
2019-03-03T03:20:05.996Z,3.12
2019-03-03T03:23:22.093Z,2.55
2019-03-03T03:26:26.156Z,3.72
2019-03-03T03:29:28.682Z,2.87
2019-03-03T03:32:38.636Z,3.10
2019-03-03T03:35:51.399Z,3.15
2019-03-03T03:38:55.214Z,3.62
2019-03-03T03:41:55.688Z,2.35
2019-03-03T03:45:08.967Z,3.02
2019-03-03T03:48:13.294Z,3.27
2019-03-03T03:51:20.679Z,2.15
2019-03-03T03:54:41.641Z,3.87
2019-03-03T03:57:45.708Z,3.75
2019-03-03T04:01:07.688Z,3.75
2019-03-03T04:04:12.009Z,2.45
2019-03-03T04:07:16.072Z,2.50
2019-03-03T04:10:35.497Z,2.85
2019-03-03T04:13:34.442Z,3.27
2019-03-03T04:16:41.065Z,4.22
2019-03-03T04:19:49.230Z,4.10
2019-03-03T04:22:59.177Z,3.05
2019-03-03T04:26:06.067Z,2.15
2019-03-03T04:29:08.841Z,3.10
2019-03-03T04:32:19.053Z,3.02
2019-03-03T04:35:35.399Z,3.05
2019-03-03T04:38:54.572Z,3.67
2019-03-03T04:41:59.657Z,3.08
2019-03-03T04:45:00.285Z,3.20
2019-03-03T04:48:21.366Z,2.35
2019-03-03T04:51:28.747Z,2.65
2019-03-03T04:54:28.719Z,2.33
2019-03-03T04:57:48.907Z,3.25
2019-03-03T05:00:55.788Z,2.25
2019-03-03T05:04:00.873Z,3.10
2019-03-03T05:07:02.378Z,2.65
2019-03-03T05:10:13.608Z,3.17
2019-03-03T05:13:20.746Z,2.80
2019-03-03T05:16:42.982Z,2.70
2019-03-03T05:19:40.396Z,2.92
2019-03-03T05:22:34.216Z,3.40
2019-03-03T05:25:27.274Z,2.90
2019-03-03T05:28:20.584Z,3.85
2019-03-03T05:31:13.389Z,3.25
2019-03-03T05:34:07.723Z,3.12
2019-03-03T05:37:00.524Z,3.67
2019-03-03T05:39:54.345Z,3.37
2019-03-03T05:42:48.170Z,2.35
2019-03-03T05:45:41.224Z,3.37
2019-03-03T05:48:34.027Z,2.30
2019-03-03T05:51:27.336Z,3.27
2019-03-03T05:54:21.161Z,2.40
2019-03-03T05:57:13.960Z,2.85
2019-03-03T06:00:08.559Z,2.77
2019-03-03T06:03:01.607Z,2.83
2019-03-03T06:05:54.922Z,3.02
2019-03-03T06:08:48.742Z,3.37
2019-03-03T06:11:41.800Z,2.30
2019-03-03T06:14:34.344Z,2.65
2019-03-03T06:17:27.147Z,4.33
2019-03-03T06:20:20.202Z,3.67
2019-03-03T06:23:12.999Z,2.83
2019-03-03T06:26:06.055Z,3.33
2019-03-03T06:29:00.141Z,3.12
2019-03-03T06:31:53.191Z,3.62
2019-03-03T06:34:42.570Z,3.35
2019-03-03T06:37:35.463Z,2.27
2019-03-03T06:40:28.526Z,3.20
2019-03-03T06:43:21.324Z,3.35
2019-03-03T06:46:14.125Z,3.67
2019-03-03T06:49:07.191Z,3.77
2019-03-03T06:52:01.005Z,3.65
2019-03-03T06:54:54.057Z,2.83
2019-03-03T06:57:46.856Z,3.17
2019-03-03T07:00:39.655Z,2.33
2019-03-03T07:03:32.968Z,2.42
2019-03-03T07:06:25.769Z,2.22
2019-03-03T07:09:19.592Z,2.55
2019-03-03T07:12:13.675Z,3.60
2019-03-03T07:15:06.472Z,2.30
2019-03-03T07:17:59.279Z,3.85
2019-03-03T07:20:53.350Z,3.42
2019-03-03T07:23:46.155Z,3.27
2019-03-03T07:26:39.208Z,3.10
2019-03-03T07:29:39.943Z,2.70
2019-03-03T07:32:33.002Z,2.77
2019-03-03T07:35:25.799Z,3.80
2019-03-03T07:38:18.606Z,3.15
2019-03-03T07:41:11.914Z,3.62
2019-03-03T07:44:04.710Z,2.08
2019-03-03T07:46:58.551Z,3.27
2019-03-03T07:49:51.593Z,3.47
2019-03-03T07:52:44.393Z,3.25
2019-03-03T07:55:37.451Z,2.83
2019-03-03T07:58:27.023Z,3.33
2019-03-03T08:01:19.978Z,2.62
2019-03-03T08:04:12.777Z,2.98
2019-03-03T08:07:05.831Z,2.30
2019-03-03T08:09:58.630Z,3.20
2019-03-03T08:12:51.687Z,2.52
2019-03-03T08:15:45.260Z,3.65
2019-03-03T08:18:38.314Z,1.92
2019-03-03T08:21:31.132Z,3.33
2019-03-03T08:24:23.913Z,3.52
2019-03-03T08:27:17.224Z,4.25
2019-03-03T08:30:10.539Z,3.22
2019-03-03T08:33:03.593Z,4.33
2019-03-03T08:35:56.661Z,3.77
2019-03-03T08:38:50.475Z,3.00
2019-03-03T08:41:43.530Z,2.90
2019-03-03T08:44:50.664Z,3.42
2019-03-03T08:47:53.154Z,3.20
2019-03-03T08:50:55.211Z,3.75
2019-03-03T08:54:02.644Z,2.12
2019-03-03T08:57:05.389Z,2.65
2019-03-03T09:00:18.254Z,2.22
2019-03-03T09:03:35.017Z,2.35
2019-03-03T09:06:51.631Z,3.58
2019-03-03T09:09:58.765Z,2.62
2019-03-03T09:13:08.715Z,2.62
2019-03-03T09:16:11.497Z,3.30
2019-03-03T09:19:21.704Z,2.72
2019-03-03T09:22:29.610Z,2.80
2019-03-03T09:25:35.978Z,2.85
2019-03-03T09:28:52.582Z,3.70
2019-03-03T09:31:55.623Z,3.47
2019-03-03T09:34:58.166Z,3.20
2019-03-03T09:38:12.967Z,3.17
2019-03-03T09:41:15.936Z,2.75
2019-03-03T09:44:22.640Z,2.80
2019-03-03T09:47:35.914Z,3.50
2019-03-03T09:50:52.013Z,2.87
2019-03-03T09:54:02.217Z,2.52
2019-03-03T09:57:04.743Z,2.37
2019-03-03T10:00:11.371Z,3.02
2019-03-03T10:03:24.394Z,2.75
2019-03-03T10:06:30.506Z,2.50
2019-03-03T10:09:37.392Z,3.08
2019-03-03T10:12:59.369Z,2.80
2019-03-03T10:16:05.993Z,3.00
2019-03-03T10:19:10.056Z,3.05
2019-03-03T10:22:14.378Z,2.67
2019-03-03T10:25:18.696Z,2.40
2019-03-03T10:28:23.529Z,2.45
2019-03-03T10:31:47.934Z,2.42
2019-03-03T10:34:48.808Z,2.95
2019-03-03T10:37:50.312Z,2.40
2019-03-03T10:41:06.156Z,2.85
2019-03-03T10:44:13.041Z,2.42
2019-03-03T10:47:22.984Z,1.92
2019-03-03T10:50:26.795Z,2.87
2019-03-03T10:53:23.437Z,3.05
2019-03-03T10:56:43.367Z,2.52
2019-03-03T10:59:45.901Z,2.45
2019-03-03T11:02:53.032Z,2.37
2019-03-03T11:06:00.169Z,2.70
2019-03-03T11:09:08.076Z,3.15
2019-03-03T11:15:47.690Z,2.10
2019-03-03T11:19:05.321Z,3.30
2019-03-03T11:22:08.103Z,2.92
2019-03-03T11:25:11.149Z,2.45
2019-03-03T11:28:23.492Z,2.92
2019-03-03T11:31:21.063Z,1.67
2019-03-03T11:34:29.781Z,2.77
2019-03-03T11:37:32.776Z,2.20
2019-03-03T11:40:37.095Z,2.12
2019-03-03T11:44:00.364Z,2.55
2019-03-03T11:47:06.215Z,2.75
2019-03-03T11:53:49.415Z,1.52
2019-03-03T11:56:56.296Z,2.27
2019-03-03T12:00:00.624Z,2.02
2019-03-03T12:03:14.161Z,2.92
2019-03-03T12:06:21.550Z,2.67
2019-03-03T12:09:28.679Z,1.95
2019-03-03T12:12:44.776Z,2.72
2019-03-03T12:15:57.549Z,2.45
2019-03-03T12:19:38.122Z,2.33
2019-03-03T12:23:02.247Z,1.90
2019-03-03T12:26:18.712Z,2.40
2019-03-03T12:29:33.162Z,2.25
2019-03-03T12:32:41.687Z,2.42
2019-03-03T12:35:56.248Z,1.60
2019-03-03T12:39:00.978Z,2.25
2019-03-03T12:42:21.580Z,1.75
2019-03-03T12:45:29.903Z,1.62
2019-03-03T12:48:31.753Z,2.37
2019-03-03T12:51:42.730Z,2.20
2019-03-03T12:54:50.853Z,1.72
2019-03-03T12:57:55.163Z,2.47
2019-03-03T13:00:54.761Z,2.17
2019-03-03T13:03:59.915Z,2.08
2019-03-03T13:07:20.408Z,1.87
2019-03-03T13:10:25.549Z,2.05
2019-03-03T13:13:42.506Z,2.15
2019-03-03T13:16:48.731Z,1.50
2019-03-03T13:20:01.043Z,2.00
2019-03-03T13:23:15.649Z,2.33
2019-03-03T13:26:19.100Z,2.00
2019-03-03T13:29:18.502Z,2.00
2019-03-03T13:32:26.713Z,1.95
2019-03-03T13:35:32.715Z,1.80
2019-03-03T13:38:38.057Z,1.55
2019-03-03T13:41:45.192Z,1.40
2019-03-03T13:44:40.930Z,1.90
2019-03-03T13:47:35.845Z,2.15
2019-03-03T13:50:31.136Z,1.90
2019-03-03T13:53:25.351Z,2.47
2019-03-03T13:56:19.808Z,2.55
2019-03-03T13:59:13.260Z,2.15
2019-03-03T14:02:07.336Z,2.10
2019-03-03T14:04:58.258Z,2.37
2019-03-03T14:07:52.678Z,2.42
2019-03-03T14:10:48.058Z,2.30
2019-03-03T14:13:38.452Z,2.20
2019-03-03T14:16:33.641Z,1.77
2019-03-03T14:19:28.048Z,2.27
2019-03-03T14:22:22.826Z,2.25
2019-03-03T14:25:17.438Z,2.33
2019-03-03T14:28:11.926Z,2.20
2019-03-03T14:31:05.698Z,2.45
2019-03-03T14:33:59.986Z,1.70
2019-03-03T14:37:01.233Z,2.00
2019-03-03T14:39:54.727Z,3.77
2019-03-03T14:42:49.318Z,1.77
2019-03-03T14:45:43.143Z,2.55
2019-03-03T14:48:44.006Z,1.90
2019-03-03T14:51:38.595Z,1.77
2019-03-03T14:54:40.258Z,2.17
2019-03-03T14:57:34.337Z,2.17
2019-03-03T15:00:36.071Z,1.98
2019-03-03T15:03:37.832Z,2.15
2019-03-03T15:06:31.937Z,1.92
2019-03-03T15:09:40.584Z,1.37
2019-03-03T15:12:38.253Z,1.80
2019-03-03T15:15:32.842Z,1.80
2019-03-03T15:18:28.123Z,2.45
2019-03-03T15:21:25.356Z,2.35
2019-03-03T15:24:25.322Z,1.98
2019-03-03T15:27:20.806Z,2.42
2019-03-03T15:33:16.780Z,1.72
2019-03-03T15:36:10.600Z,2.17
2019-03-03T15:39:07.880Z,1.95
2019-03-03T15:42:02.088Z,2.08
2019-03-03T15:44:56.425Z,1.60
2019-03-03T15:47:51.146Z,1.70
2019-03-03T15:50:45.095Z,1.70
2019-03-03T15:53:34.822Z,1.35
2019-03-03T15:56:28.652Z,1.82
2019-03-03T15:59:30.025Z,1.70
2019-03-03T16:02:35.163Z,1.87
2019-03-03T16:05:30.992Z,2.00
2019-03-03T16:08:25.886Z,1.90
2019-03-03T16:11:19.656Z,2.22
2019-03-03T16:14:21.423Z,1.25
2019-03-03T16:17:14.987Z,1.75
2019-03-03T16:20:09.375Z,1.30
2019-03-03T16:23:03.790Z,1.80
2019-03-03T16:25:59.072Z,2.05
2019-03-03T16:28:52.983Z,2.55
2019-03-03T16:31:47.308Z,2.05
2019-03-03T16:34:42.033Z,2.25
2019-03-03T16:37:43.098Z,2.12
2019-03-03T16:40:39.782Z,2.65
2019-03-03T16:43:39.531Z,1.50
2019-03-03T16:46:34.124Z,1.62
2019-03-03T16:49:37.518Z,1.37
2019-03-03T16:52:33.440Z,1.90
2019-03-03T16:55:28.362Z,0.98
2019-03-03T16:58:22.697Z,1.50
2019-03-03T17:01:12.716Z,1.47
2019-03-03T17:04:10.345Z,1.42
2019-03-03T17:07:04.869Z,1.47
2019-03-03T17:10:02.735Z,1.20
2019-03-03T17:12:52.756Z,1.35
2019-03-03T17:15:48.235Z,1.47
2019-03-03T17:18:41.515Z,1.30
2019-03-03T17:21:34.823Z,1.10
2019-03-03T17:24:42.470Z,1.45
2019-03-03T17:27:37.456Z,1.35
2019-03-03T17:30:45.872Z,1.27
2019-03-03T17:33:40.073Z,1.50
2019-03-03T17:36:33.641Z,0.93
2019-03-03T17:39:35.151Z,1.10
2019-03-03T17:42:29.223Z,1.35
2019-03-03T17:45:23.313Z,1.05
2019-03-03T17:48:19.394Z,1.37
2019-03-03T17:51:13.003Z,1.52
2019-03-03T17:54:07.219Z,1.27
2019-03-03T17:57:17.989Z,1.10
2019-03-03T18:00:06.505Z,1.07
2019-03-03T18:03:08.919Z,0.93
2019-03-03T18:06:03.367Z,1.00
2019-03-03T18:09:05.067Z,1.30
2019-03-03T18:11:59.976Z,1.25
2019-03-03T18:14:55.276Z,0.93
2019-03-03T18:17:50.639Z,1.50
2019-03-03T18:20:44.147Z,1.15
2019-03-03T18:23:39.271Z,1.55
2019-03-03T18:26:35.381Z,1.75
2019-03-03T18:29:30.090Z,1.15
2019-03-03T18:32:31.527Z,1.10
2019-03-03T18:35:25.426Z,1.47
2019-03-03T18:38:26.856Z,1.42
2019-03-03T18:41:21.517Z,1.35
2019-03-03T18:44:15.734Z,1.50
2019-03-03T18:47:10.327Z,1.30
2019-03-03T18:50:04.714Z,1.17
2019-03-03T18:52:59.938Z,1.07
2019-03-03T18:55:52.936Z,1.10
2019-03-03T18:58:47.470Z,1.30
2019-03-03T19:01:41.608Z,1.82
2019-03-03T19:04:35.183Z,1.32
2019-03-03T19:07:29.404Z,1.67
2019-03-03T19:10:25.178Z,1.90
2019-03-03T19:13:18.440Z,1.32
2019-03-03T19:16:09.489Z,1.30
2019-03-03T19:19:03.525Z,1.65
2019-03-03T19:21:57.862Z,1.35
2019-03-03T19:25:00.392Z,1.82
2019-03-03T19:27:54.728Z,1.70
2019-03-03T19:30:55.663Z,1.22
2019-03-03T19:34:00.296Z,2.22
2019-03-03T19:36:54.375Z,1.55
2019-03-03T19:39:49.369Z,1.42
2019-03-03T19:42:43.578Z,1.02
2019-03-03T19:45:35.657Z,2.10
2019-03-03T19:48:37.242Z,1.20
2019-03-03T19:51:30.918Z,1.47
2019-03-03T19:54:25.002Z,1.65
2019-03-03T19:57:18.974Z,1.30
2019-03-03T20:00:13.359Z,1.50
2019-03-03T20:03:08.522Z,1.40
2019-03-03T20:06:09.917Z,1.22
2019-03-03T20:09:07.583Z,1.42
2019-03-03T20:12:02.173Z,1.45
2019-03-03T20:14:55.847Z,1.22
2019-03-03T20:17:50.453Z,1.20
2019-03-03T20:20:41.963Z,1.10
2019-03-03T20:23:32.475Z,1.72
2019-03-03T20:26:27.815Z,1.17
2019-03-03T20:29:21.841Z,1.20
2019-03-03T20:32:16.442Z,1.50
2019-03-03T20:35:18.399Z,1.55
2019-03-03T20:38:11.815Z,1.40
2019-03-03T20:41:06.052Z,1.20
2019-03-03T20:44:08.687Z,1.47
2019-03-03T20:47:02.913Z,1.60
2019-03-03T20:50:06.057Z,1.52
2019-03-03T20:53:01.106Z,1.40
2019-03-03T20:55:55.699Z,1.47
2019-03-03T20:58:44.715Z,1.70
2019-03-03T21:01:38.538Z,1.32
2019-03-03T21:04:40.043Z,1.47
2019-03-03T21:07:35.146Z,1.80
2019-03-03T21:10:31.732Z,1.60
2019-03-03T21:13:26.641Z,1.30
2019-03-03T21:16:22.506Z,1.77
2019-03-03T21:19:16.586Z,1.70
2019-03-03T21:22:12.147Z,1.82
2019-03-03T21:25:13.909Z,2.00
2019-03-03T21:28:16.491Z,1.42
2019-03-03T21:31:11.489Z,1.70
2019-03-03T21:34:07.107Z,1.90
2019-03-03T21:37:01.696Z,3.15
2019-03-03T21:40:03.466Z,3.50
2019-03-03T21:42:58.364Z,2.05
2019-03-03T21:45:51.974Z,2.47
2019-03-03T21:48:53.891Z,2.60
2019-03-03T21:51:48.488Z,2.45
2019-03-03T21:54:42.462Z,4.62
2019-03-03T21:57:35.975Z,2.77
2019-03-03T22:00:31.596Z,3.22
2019-03-03T22:03:27.573Z,8.93
2019-03-03T22:06:22.166Z,1.82
2019-03-03T22:09:12.553Z,2.72
2019-03-03T22:12:13.398Z,1.98
2019-03-03T22:15:14.957Z,2.45
2019-03-03T22:18:16.403Z,2.62
2019-03-03T22:21:12.432Z,2.25
2019-03-03T22:24:06.510Z,1.70
2019-03-03T22:27:07.653Z,1.40
2019-03-03T22:30:02.091Z,1.35
2019-03-03T22:33:04.007Z,1.67
2019-03-03T22:36:05.766Z,1.35
2019-03-03T22:39:07.221Z,1.35
2019-03-03T22:42:02.118Z,2.12
2019-03-03T22:45:03.366Z,1.95
2019-03-03T22:47:59.495Z,1.75
2019-03-03T22:50:53.672Z,2.42
2019-03-03T22:53:48.518Z,1.87
2019-03-03T22:56:49.930Z,1.60
2019-03-03T22:59:44.521Z,1.22
2019-03-03T23:02:38.501Z,1.57
2019-03-03T23:05:42.928Z,1.25
2019-03-03T23:08:48.173Z,1.27
2019-03-03T23:12:01.897Z,2.17
2019-03-03T23:15:02.547Z,1.55
2019-03-03T23:18:05.936Z,1.40
2019-03-03T23:21:23.046Z,2.33
2019-03-03T23:24:41.959Z,1.75
2019-03-03T23:27:35.270Z,1.50
2019-03-03T23:30:28.585Z,2.10
2019-03-03T23:33:23.340Z,1.40
2019-03-03T23:36:17.623Z,2.00
2019-03-03T23:39:13.554Z,1.55
2019-03-03T23:42:07.834Z,2.00
2019-03-03T23:45:02.424Z,2.15
2019-03-03T23:47:56.651Z,1.67
2019-03-03T23:50:58.070Z,2.25
2019-03-03T23:53:52.547Z,2.15
2019-03-03T23:56:53.899Z,1.75
2019-03-03T23:59:48.605Z,3.33
